Startpagina
METAR-TAF:

METAR-TAF

Vliegvelden :

Guatemala-stad, Guatemala

Internationale luchthaven La Aurora

breedte: 14-35N, lengte: 090-31W, hoogte: 1489 m

Actueel weer

Dit bericht is 19 minuten geleden gemaakt, om 21:00 UTC
Wind 14 kt uit het noorden
Temperatuur 20°C
Vochtigheid 56%
Druk 1026 hPa
Zicht 10 km of meer
Weinig wolken op 8000 ft
Gebroken wolken op 20000 ft

METAR: MGGT 162100Z 36014KT CAVOK 20/11 Q1026 A3030 FEW080 BKN200

Tijdstip: 15:19 (21:19 UTC)

Verwachting

Dit bericht is 4 uur en het 19 minuten geleden gemaakt, om 17:00 UTC
Verwachting geldig van 16 om 18 UTC tot 17 om 18 UTC
Wind 16 kt uit het noorden
Zicht 10 km of meer
Weinig wolken op 1800 ft
Wijzigt naar
van 17 om 03 UTC tot 17 om 05 UTC
Verspreide wolken op 1600 ft
Wijzigt naar
van 17 om 15 UTC tot 17 om 17 UTC
Verspreide wolken op 1800 ft

TAF: MGGT 161700Z 1618/1718 36016KT 9999 FEW018 TX21/1620Z TN09/1712Z BECMG 1703/1705 SCT016 BECMG 1715/1717 SCT018

Waarnemingen en weersverwachtingen van meer dan 4000 vliegvelden (METAR en TAF).

De beschikbare stations zijn de gele en rode punten op de kaart.

Ga met uw muis naar het station om de naam te zien.

Klik dan om waarnemingen en weersverwachtingen te zien.

kaart wijzigen: klik op de groene knoppen met een zwart kruis om in te zoomen, op de groene knop met een streepje om uit te zoomen of op de groene pijlen voor aangrenzende kaarten.


METAR-TAF: